Time;durP1;ratioP1;P1;durP2;ratioP2;P2;SDS_P1;SDS_P2;PMS_P1;PMS_P2;Temp;Humidity;BMP_temperature;BMP_pressure;BME280_temperature;BME280_humidity;BME280_pressure;Samples;Min_cycle;Max_cycle;Signal;HPM_P1;HPM_P2
2023/05/15 00:03:01;;;;;;;8.40;7.93;;;12.50;61.10;;;;;;6189028;28;20255;-84
2023/05/15 00:06:04;;;;;;;8.77;8.27;;;12.50;61.20;;;;;;6198136;28;20240;-84
2023/05/15 00:09:09;;;;;;;9.47;8.80;;;12.40;61.50;;;;;;6197225;28;20902;-84
2023/05/15 00:12:12;;;;;;;8.77;8.10;;;12.30;61.60;;;;;;6201336;28;20330;-83
2023/05/15 00:15:15;;;;;;;8.80;8.20;;;12.30;61.70;;;;;;6195333;28;20246;-81
2023/05/15 00:18:18;;;;;;;8.53;7.90;;;12.30;61.70;;;;;;6206557;28;20677;-83
2023/05/15 00:21:21;;;;;;;9.90;9.07;;;12.30;61.80;;;;;;6193821;28;20242;-85
2023/05/15 00:24:26;;;;;;;9.33;8.77;;;12.20;61.90;;;;;;6199929;28;20258;-83
2023/05/15 00:27:29;;;;;;;9.70;9.00;;;12.20;62.20;;;;;;6211432;28;20262;-82
2023/05/15 00:30:32;;;;;;;8.60;8.00;;;12.20;62.20;;;;;;6210960;28;20239;-83
2023/05/15 00:33:35;;;;;;;9.07;8.40;;;12.10;62.30;;;;;;6192026;28;20234;-85
2023/05/15 00:36:38;;;;;;;9.07;8.47;;;12.10;62.40;;;;;;6212367;28;20237;-84
2023/05/15 00:39:43;;;;;;;8.87;8.17;;;12.10;62.30;;;;;;6206117;28;20242;-83
2023/05/15 00:42:47;;;;;;;7.37;6.97;;;12.10;62.10;;;;;;6214671;28;20244;-83
2023/05/15 00:45:51;;;;;;;8.47;7.90;;;12.10;62.00;;;;;;6210206;28;20278;-84
2023/05/15 00:48:57;;;;;;;8.50;7.83;;;12.10;62.00;;;;;;6198488;28;20270;-83
2023/05/15 00:52:02;;;;;;;8.13;7.73;;;12.00;61.90;;;;;;6213220;28;20261;-83
2023/05/15 00:55:09;;;;;;;8.03;7.63;;;12.00;62.00;;;;;;6192392;28;20775;-84
2023/05/15 00:58:14;;;;;;;8.40;7.80;;;11.90;62.10;;;;;;6213679;28;20230;-83
2023/05/15 01:01:18;;;;;;;8.50;7.80;;;11.90;62.10;;;;;;6202169;28;20247;-84
2023/05/15 01:04:21;;;;;;;8.43;7.87;;;11.90;62.00;;;;;;6192500;28;20730;-83
2023/05/15 01:07:24;;;;;;;9.37;8.67;;;11.90;62.20;;;;;;6214288;28;20239;-82
2023/05/15 01:10:29;;;;;;;8.57;7.97;;;11.90;62.20;;;;;;6212715;28;20288;-83
2023/05/15 01:13:32;;;;;;;8.37;7.70;;;11.80;62.30;;;;;;6212473;28;20423;-83
2023/05/15 01:16:37;;;;;;;7.97;7.40;;;11.80;62.30;;;;;;6205402;28;20366;-83
2023/05/15 01:19:41;;;;;;;7.77;7.37;;;11.70;62.40;;;;;;6208499;28;20609;-83
2023/05/15 01:22:51;;;;;;;8.70;8.00;;;11.70;62.50;;;;;;6212547;28;20239;-83
2023/05/15 01:26:49;;;;;;;8.40;7.90;;;11.70;62.60;;;;;;6212581;28;20240;-82
2023/05/15 01:30:05;;;;;;;8.03;7.53;;;11.70;62.70;;;;;;6192554;28;20235;-83
2023/05/15 01:33:15;;;;;;;8.43;7.93;;;11.60;62.80;;;;;;6185972;28;20247;-84
2023/05/15 01:36:26;;;;;;;8.30;7.73;;;11.60;62.90;;;;;;6203832;28;20232;-83
2023/05/15 01:39:33;;;;;;;8.63;8.13;;;11.50;63.10;;;;;;6193402;28;20243;-84
2023/05/15 01:42:41;;;;;;;8.83;8.13;;;11.50;63.10;;;;;;6190500;28;20239;-83
2023/05/15 01:45:45;;;;;;;8.40;7.90;;;11.50;63.10;;;;;;6197810;28;20243;-82
2023/05/15 01:48:50;;;;;;;8.07;7.67;;;11.50;63.40;;;;;;6210171;28;20251;-84
2023/05/15 01:51:58;;;;;;;9.10;8.60;;;11.50;63.50;;;;;;6195475;28;20368;-84
2023/05/15 01:55:02;;;;;;;9.27;8.67;;;11.50;63.60;;;;;;6196316;28;20236;-84
2023/05/15 01:58:06;;;;;;;9.00;8.50;;;11.50;63.70;;;;;;6195129;28;20791;-83
2023/05/15 02:01:11;;;;;;;8.67;8.17;;;11.50;63.90;;;;;;6220830;28;20249;-84
2023/05/15 02:04:15;;;;;;;10.10;9.43;;;11.50;63.90;;;;;;6206863;28;20366;-83
2023/05/15 02:07:19;;;;;;;8.67;8.17;;;11.50;64.00;;;;;;6200914;28;20239;-83
2023/05/15 02:10:23;;;;;;;9.80;9.20;;;11.50;64.00;;;;;;6198907;28;20262;-84
2023/05/15 02:13:27;;;;;;;9.07;8.57;;;11.50;64.00;;;;;;6211229;28;20247;-81
2023/05/15 02:16:31;;;;;;;9.63;9.07;;;11.40;64.10;;;;;;6203835;28;20311;-81
2023/05/15 02:19:34;;;;;;;9.63;9.03;;;11.40;64.20;;;;;;6198580;28;20228;-83
2023/05/15 02:22:37;;;;;;;10.00;9.30;;;11.40;64.20;;;;;;6209142;28;20987;-83
2023/05/15 02:25:50;;;;;;;9.33;8.73;;;11.40;64.30;;;;;;6207725;28;20235;-82
2023/05/15 02:29:03;;;;;;;10.50;9.63;;;11.40;64.30;;;;;;6195145;28;20262;-83
2023/05/15 02:32:15;;;;;;;10.03;9.43;;;11.40;64.50;;;;;;6196454;28;20751;-84
2023/05/15 02:35:27;;;;;;;10.20;9.57;;;11.30;64.60;;;;;;6202714;28;20347;-84
2023/05/15 02:38:33;;;;;;;10.63;9.93;;;11.30;64.70;;;;;;6204760;28;20235;-83
2023/05/15 02:41:37;;;;;;;10.43;9.63;;;11.30;64.90;;;;;;6194109;28;20243;-82
2023/05/15 02:44:42;;;;;;;9.80;9.20;;;11.30;65.00;;;;;;6197026;28;20236;-84
2023/05/15 02:47:49;;;;;;;12.23;11.13;;;11.20;65.10;;;;;;6196858;28;20246;-85
2023/05/15 02:50:52;;;;;;;10.97;10.17;;;11.20;65.10;;;;;;6215761;28;20243;-84
2023/05/15 02:53:56;;;;;;;10.53;9.83;;;11.20;65.20;;;;;;6183437;28;20786;-84
2023/05/15 02:56:59;;;;;;;10.70;9.90;;;11.30;65.30;;;;;;6210722;28;20262;-83
2023/05/15 03:00:05;;;;;;;10.97;10.17;;;11.30;65.30;;;;;;6191702;28;20254;-83
2023/05/15 03:03:09;;;;;;;12.30;11.30;;;11.30;65.40;;;;;;6215148;28;20393;-85
2023/05/15 03:06:12;;;;;;;12.00;10.97;;;11.40;65.60;;;;;;6202973;28;20243;-85
2023/05/15 03:09:16;;;;;;;10.83;10.03;;;11.40;65.70;;;;;;6192239;28;20240;-83
2023/05/15 03:12:19;;;;;;;12.63;11.73;;;11.40;65.70;;;;;;6198459;28;20935;-83
2023/05/15 03:15:22;;;;;;;11.87;11.07;;;11.30;65.90;;;;;;6208044;28;20262;-82
2023/05/15 03:18:27;;;;;;;11.53;10.77;;;11.40;65.90;;;;;;6203804;28;20236;-82
2023/05/15 03:21:30;;;;;;;11.43;10.63;;;11.40;66.00;;;;;;6211309;28;20775;-83
2023/05/15 03:24:34;;;;;;;11.10;10.37;;;11.40;66.10;;;;;;6194553;28;20242;-83
2023/05/15 03:27:37;;;;;;;11.30;10.47;;;11.40;66.40;;;;;;6191267;28;20236;-83
2023/05/15 03:30:40;;;;;;;11.70;10.90;;;11.30;66.50;;;;;;6203834;28;20235;-84
2023/05/15 03:33:48;;;;;;;11.50;10.70;;;11.30;66.50;;;;;;6196935;28;20265;-84
2023/05/15 03:36:51;;;;;;;11.87;10.80;;;11.30;66.70;;;;;;6203560;28;20224;-81
2023/05/15 03:39:54;;;;;;;12.10;11.33;;;11.30;66.80;;;;;;6202886;28;20237;-83
2023/05/15 03:42:58;;;;;;;12.00;11.10;;;11.30;67.00;;;;;;6198508;28;20232;-81
2023/05/15 03:46:01;;;;;;;12.63;11.57;;;11.30;67.10;;;;;;6205284;28;20242;-84
2023/05/15 03:49:06;;;;;;;12.83;11.93;;;11.30;67.10;;;;;;6208539;28;20246;-84
2023/05/15 03:52:09;;;;;;;11.37;10.57;;;11.20;67.10;;;;;;6201917;28;20838;-81
2023/05/15 03:55:12;;;;;;;11.13;10.43;;;11.20;67.10;;;;;;6195868;28;20784;-83
2023/05/15 03:58:16;;;;;;;11.20;10.40;;;11.10;67.00;;;;;;6187906;28;20236;-83
2023/05/15 04:01:19;;;;;;;11.73;11.03;;;11.20;67.00;;;;;;6195648;28;20247;-84
2023/05/15 04:04:23;;;;;;;11.37;10.43;;;11.10;67.10;;;;;;6167968;28;20783;-79
2023/05/15 04:07:27;;;;;;;11.93;10.87;;;11.10;67.10;;;;;;6199994;28;20618;-79
2023/05/15 04:10:31;;;;;;;11.77;10.90;;;11.20;67.10;;;;;;6208964;28;20243;-81
2023/05/15 04:13:34;;;;;;;11.43;10.63;;;11.20;67.10;;;;;;6216228;28;20314;-79
2023/05/15 04:16:38;;;;;;;11.77;10.87;;;11.20;67.10;;;;;;6204414;28;20240;-80
2023/05/15 04:19:44;;;;;;;11.87;10.80;;;11.30;67.00;;;;;;6213039;28;20243;-80
2023/05/15 04:22:48;;;;;;;12.23;11.23;;;11.40;67.00;;;;;;6218826;28;20234;-78
2023/05/15 04:25:52;;;;;;;12.53;11.73;;;11.50;66.80;;;;;;6209672;28;20318;-81
2023/05/15 04:28:56;;;;;;;13.27;12.27;;;11.50;66.60;;;;;;6205771;28;20852;-80
2023/05/15 04:32:06;;;;;;;16.80;15.17;;;11.60;66.40;;;;;;6203705;28;20255;-80
2023/05/15 04:35:13;;;;;;;15.33;14.00;;;11.70;66.30;;;;;;6201772;28;20734;-80
2023/05/15 04:38:15;;;;;;;16.30;13.87;;;11.80;66.10;;;;;;6205939;28;20251;-78
2023/05/15 04:41:18;;;;;;;17.67;15.87;;;11.90;65.70;;;;;;6210077;28;20247;-79
2023/05/15 04:44:22;;;;;;;14.80;13.60;;;11.90;65.10;;;;;;6200166;28;20890;-82
2023/05/15 04:47:25;;;;;;;16.47;15.03;;;12.00;64.80;;;;;;6207469;28;20239;-79
2023/05/15 04:50:29;;;;;;;14.17;12.97;;;12.00;64.70;;;;;;6208675;28;20244;-81
2023/05/15 04:53:32;;;;;;;16.33;14.33;;;12.00;64.70;;;;;;6213098;28;20244;-81
2023/05/15 04:56:35;;;;;;;14.23;13.13;;;12.10;64.50;;;;;;6205253;28;20231;-80
2023/05/15 04:59:39;;;;;;;15.30;13.87;;;12.10;64.50;;;;;;6203124;28;20254;-80
2023/05/15 05:02:42;;;;;;;13.73;12.63;;;12.20;64.30;;;;;;6176415;28;20236;-81
2023/05/15 05:05:49;;;;;;;12.63;11.63;;;12.30;64.20;;;;;;6192330;28;20318;-79
2023/05/15 05:08:52;;;;;;;12.67;11.50;;;12.50;63.90;;;;;;6191281;28;20243;-80
2023/05/15 05:11:55;;;;;;;13.73;12.40;;;12.90;63.30;;;;;;6188043;28;20242;-80
2023/05/15 05:14:58;;;;;;;13.20;12.10;;;13.30;62.60;;;;;;6218275;28;20236;-80
2023/05/15 05:18:01;;;;;;;11.93;10.93;;;13.60;62.50;;;;;;6212320;28;20742;-80
2023/05/15 05:21:06;;;;;;;11.43;10.47;;;13.90;60.70;;;;;;6184596;28;20254;-81
2023/05/15 05:24:10;;;;;;;12.03;11.07;;;14.20;60.00;;;;;;6202287;28;20243;-81
2023/05/15 05:27:13;;;;;;;13.63;12.33;;;14.60;59.30;;;;;;6198672;28;20232;-81
2023/05/15 05:30:16;;;;;;;12.00;11.00;;;15.00;59.20;;;;;;6199155;28;20632;-79
2023/05/15 05:33:19;;;;;;;14.40;13.10;;;15.30;58.40;;;;;;6198695;28;20234;-79
2023/05/15 05:36:24;;;;;;;15.33;12.00;;;15.50;57.50;;;;;;6206012;28;20361;-76
2023/05/15 05:39:27;;;;;;;11.27;10.17;;;15.80;56.90;;;;;;6215093;28;20251;-79
2023/05/15 05:42:30;;;;;;;10.83;9.93;;;16.10;56.00;;;;;;6219995;28;20691;-78
2023/05/15 05:45:33;;;;;;;11.33;10.20;;;16.40;55.10;;;;;;6206039;28;20239;-77
2023/05/15 05:48:36;;;;;;;12.43;11.37;;;16.60;54.20;;;;;;6202563;28;20849;-79
2023/05/15 05:51:40;;;;;;;17.07;10.90;;;16.70;54.20;;;;;;6196794;28;20250;-79
2023/05/15 05:54:45;;;;;;;11.17;10.33;;;16.60;54.50;;;;;;6199421;28;20239;-81
2023/05/15 05:57:48;;;;;;;10.57;9.77;;;16.60;55.20;;;;;;6201735;28;20239;-81
2023/05/15 06:00:51;;;;;;;10.70;9.87;;;16.40;55.30;;;;;;6197613;28;20325;-79
2023/05/15 06:03:54;;;;;;;10.63;9.77;;;16.20;55.50;;;;;;6192137;28;20241;-79
2023/05/15 06:06:59;;;;;;;10.30;9.23;;;16.00;56.10;;;;;;6206737;28;20246;-82
2023/05/15 06:10:02;;;;;;;11.23;9.97;;;15.90;56.80;;;;;;6202602;28;20243;-80
2023/05/15 06:13:05;;;;;;;15.90;10.63;;;15.80;57.20;;;;;;6209774;28;20917;-80
2023/05/15 06:16:09;;;;;;;11.30;10.33;;;15.60;58.00;;;;;;6218896;28;20243;-79
2023/05/15 06:19:12;;;;;;;10.93;9.87;;;15.50;58.70;;;;;;6218389;28;20234;-80
2023/05/15 06:22:16;;;;;;;10.97;10.17;;;15.50;59.00;;;;;;6207551;28;20238;-82
2023/05/15 06:25:19;;;;;;;12.33;11.23;;;15.50;59.10;;;;;;6205071;28;20268;-82
2023/05/15 06:28:22;;;;;;;12.27;11.13;;;15.50;59.50;;;;;;6210277;28;20239;-80
2023/05/15 06:31:26;;;;;;;13.07;11.63;;;15.50;59.20;;;;;;6201007;28;20287;-79
2023/05/15 06:34:29;;;;;;;13.67;11.73;;;15.60;58.70;;;;;;6198217;28;20236;-80
2023/05/15 06:37:33;;;;;;;10.33;9.60;;;15.80;58.00;;;;;;6211269;28;20236;-80
2023/05/15 06:40:36;;;;;;;9.73;8.80;;;16.00;56.80;;;;;;6208754;28;20231;-80
2023/05/15 06:43:39;;;;;;;10.27;9.20;;;16.10;56.90;;;;;;6208372;28;20743;-79
2023/05/15 06:46:42;;;;;;;10.93;9.87;;;16.30;56.50;;;;;;6201462;28;20236;-78
2023/05/15 06:49:46;;;;;;;9.83;9.17;;;16.40;56.30;;;;;;6208770;28;20242;-82
2023/05/15 06:52:50;;;;;;;8.97;8.23;;;16.50;56.10;;;;;;6211245;28;20269;-79
2023/05/15 06:55:53;;;;;;;10.97;9.87;;;16.60;56.50;;;;;;6210797;28;20250;-80
2023/05/15 06:58:56;;;;;;;11.07;10.13;;;16.70;56.80;;;;;;6200969;28;20231;-80
2023/05/15 07:01:59;;;;;;;9.77;9.10;;;16.80;56.50;;;;;;6205914;28;20247;-78
2023/05/15 07:05:02;;;;;;;9.93;9.00;;;16.90;54.80;;;;;;6209305;28;20981;-80
2023/05/15 07:08:07;;;;;;;11.60;10.50;;;17.00;54.90;;;;;;6210042;28;20382;-80
2023/05/15 07:11:10;;;;;;;12.93;11.63;;;17.20;54.00;;;;;;6205557;28;20241;-81
2023/05/15 07:14:14;;;;;;;10.53;9.63;;;17.40;53.60;;;;;;6201739;28;20632;-78
2023/05/15 07:17:18;;;;;;;16.07;9.77;;;17.60;53.30;;;;;;6196880;28;20240;-79
2023/05/15 07:20:21;;;;;;;8.67;7.87;;;18.00;52.50;;;;;;6200782;28;20779;-81
2023/05/15 07:23:33;;;;;;;10.37;8.43;;;18.10;51.80;;;;;;6214852;28;20297;-79
2023/05/15 07:26:36;;;;;;;9.47;8.67;;;18.20;51.30;;;;;;6209577;28;20270;-78
2023/05/15 07:29:59;;;;;;;11.23;10.10;;;18.30;51.10;;;;;;6203883;28;20295;-83
2023/05/15 07:33:02;;;;;;;8.80;8.00;;;18.30;51.40;;;;;;6203792;28;20703;-81
2023/05/15 07:36:06;;;;;;;13.80;9.23;;;18.40;51.50;;;;;;6194344;28;20248;-80
2023/05/15 07:39:10;;;;;;;8.73;8.13;;;18.40;51.30;;;;;;6204927;28;20262;-80
2023/05/15 07:42:13;;;;;;;7.63;7.20;;;18.30;51.20;;;;;;6187809;28;20245;-80
2023/05/15 07:45:17;;;;;;;8.47;7.73;;;18.40;51.00;;;;;;6183535;28;20243;-81
2023/05/15 07:48:20;;;;;;;8.07;7.37;;;18.40;50.70;;;;;;6207878;28;20238;-81
2023/05/15 07:51:23;;;;;;;7.43;6.83;;;18.30;50.70;;;;;;6195990;28;20246;-81
2023/05/15 07:54:30;;;;;;;7.83;7.03;;;18.40;50.70;;;;;;6211188;28;20231;-80
2023/05/15 07:57:34;;;;;;;7.70;6.97;;;18.40;50.80;;;;;;6209136;28;20243;-80
2023/05/15 08:00:37;;;;;;;8.23;7.63;;;18.50;50.40;;;;;;6212439;28;20322;-78
2023/05/15 08:03:40;;;;;;;8.20;7.43;;;18.50;50.70;;;;;;6204428;28;20243;-78
2023/05/15 08:06:43;;;;;;;6.83;6.43;;;18.60;51.50;;;;;;6204431;28;20945;-78
2023/05/15 08:09:48;;;;;;;6.93;6.50;;;18.90;51.50;;;;;;6200156;28;20240;-81
2023/05/15 08:12:51;;;;;;;7.27;6.80;;;19.00;50.90;;;;;;6202508;28;20239;-79
2023/05/15 08:15:54;;;;;;;10.03;7.70;;;19.10;50.30;;;;;;6207588;28;20244;-80
2023/05/15 08:19:00;;;;;;;11.40;7.43;;;19.30;50.10;;;;;;6212207;28;20322;-80
2023/05/15 08:22:03;;;;;;;7.53;6.77;;;19.50;49.80;;;;;;6206490;28;20247;-80
2023/05/15 08:25:09;;;;;;;11.53;7.57;;;19.60;50.40;;;;;;6202111;28;20259;-81
2023/05/15 08:28:12;;;;;;;9.37;7.37;;;19.60;49.80;;;;;;6200300;28;20243;-81
2023/05/15 08:31:15;;;;;;;6.60;6.20;;;19.50;48.30;;;;;;6208750;28;20246;-81
2023/05/15 08:34:18;;;;;;;7.47;6.77;;;19.50;49.30;;;;;;6219887;28;20239;-80
2023/05/15 08:37:21;;;;;;;8.77;7.50;;;19.50;49.20;;;;;;6214496;28;20234;-81
2023/05/15 08:40:26;;;;;;;10.93;7.20;;;19.30;48.60;;;;;;6206671;28;20881;-81
2023/05/15 08:43:42;;;;;;;9.17;6.47;;;19.10;48.90;;;;;;6222278;28;20240;-80
2023/05/15 08:46:47;;;;;;;10.10;7.53;;;19.00;49.50;;;;;;6214771;28;20244;-80
2023/05/15 08:50:00;;;;;;;7.20;6.60;;;18.80;49.70;;;;;;6215380;28;20321;-80
2023/05/15 08:53:04;;;;;;;7.10;6.40;;;18.80;49.60;;;;;;6213391;28;20235;-81
2023/05/15 08:56:09;;;;;;;10.37;7.40;;;18.70;49.50;;;;;;6215046;28;20234;-78
2023/05/15 08:59:12;;;;;;;8.13;7.53;;;18.70;50.10;;;;;;6213482;28;20243;-79
2023/05/15 09:02:17;;;;;;;7.80;7.10;;;18.70;50.10;;;;;;6211104;28;20399;-80
2023/05/15 09:05:20;;;;;;;7.30;6.70;;;18.70;50.00;;;;;;6222200;28;20903;-81
2023/05/15 09:08:24;;;;;;;7.60;6.73;;;18.70;50.40;;;;;;6203728;28;20254;-80
2023/05/15 09:11:31;;;;;;;6.37;6.07;;;18.80;50.50;;;;;;6195125;28;20247;-80
2023/05/15 09:14:34;;;;;;;8.37;7.57;;;18.90;50.90;;;;;;6210903;28;20341;-79
2023/05/15 09:17:38;;;;;;;7.77;7.03;;;18.90;50.50;;;;;;6206031;28;20745;-80
2023/05/15 09:20:41;;;;;;;6.53;6.03;;;18.90;50.40;;;;;;6185501;28;20239;-83
2023/05/15 09:23:45;;;;;;;7.70;6.40;;;18.90;50.90;;;;;;6210641;28;20243;-82
2023/05/15 09:27:05;;;;;;;7.97;6.63;;;18.90;50.60;;;;;;6206523;28;20845;-78
2023/05/15 09:30:10;;;;;;;7.43;6.73;;;18.90;50.70;;;;;;6211915;28;20244;-78
2023/05/15 09:33:13;;;;;;;7.80;7.20;;;18.90;51.10;;;;;;6210060;28;20616;-79
2023/05/15 09:36:22;;;;;;;8.43;6.20;;;18.80;51.10;;;;;;6198868;28;20250;-79
2023/05/15 09:39:25;;;;;;;7.03;6.43;;;18.90;51.40;;;;;;6203298;28;20819;-79
2023/05/15 09:42:34;;;;;;;7.30;6.27;;;19.00;51.60;;;;;;6193919;28;20961;-80
2023/05/15 09:45:38;;;;;;;6.60;6.17;;;19.10;50.70;;;;;;6207655;28;20290;-78
2023/05/15 09:48:41;;;;;;;6.53;5.93;;;19.20;50.60;;;;;;6208321;28;20227;-79
2023/05/15 09:51:45;;;;;;;6.97;6.37;;;19.40;50.30;;;;;;6206422;28;20243;-78
2023/05/15 09:54:50;;;;;;;8.53;7.80;;;19.40;50.00;;;;;;6210324;28;20239;-79
2023/05/15 09:58:09;;;;;;;6.40;6.10;;;19.50;49.40;;;;;;6215064;28;20235;-79
2023/05/15 10:01:13;;;;;;;8.40;6.47;;;19.50;50.10;;;;;;6205402;28;20228;-77
2023/05/15 10:04:16;;;;;;;5.93;5.43;;;19.50;49.50;;;;;;6227626;28;20321;-78
2023/05/15 10:07:28;;;;;;;6.70;6.20;;;19.50;49.80;;;;;;6210963;28;20246;-78
2023/05/15 10:10:31;;;;;;;7.40;6.90;;;19.50;50.00;;;;;;6207682;28;20862;-81
2023/05/15 10:13:36;;;;;;;12.67;7.43;;;19.60;49.90;;;;;;6218807;28;20323;-78
2023/05/15 10:16:41;;;;;;;7.57;6.73;;;19.60;50.30;;;;;;6200858;28;20742;-80
2023/05/15 10:19:44;;;;;;;7.73;6.13;;;19.70;50.00;;;;;;6207782;28;20712;-77
2023/05/15 10:23:04;;;;;;;9.40;6.97;;;19.50;50.10;;;;;;6204735;28;20240;-78
2023/05/15 10:26:19;;;;;;;9.77;6.10;;;19.60;50.10;;;;;;6208235;28;20235;-81
2023/05/15 10:29:25;;;;;;;6.60;6.10;;;19.60;50.50;;;;;;6207375;28;20246;-80
2023/05/15 10:32:29;;;;;;;6.43;5.90;;;19.50;50.00;;;;;;6197371;28;20235;-77
2023/05/15 10:35:35;;;;;;;7.03;6.53;;;19.50;50.30;;;;;;6210967;28;20246;-80
2023/05/15 10:38:39;;;;;;;6.63;6.00;;;19.40;51.00;;;;;;6203518;28;20250;-80
2023/05/15 10:41:45;;;;;;;6.93;6.33;;;19.40;51.50;;;;;;6207296;28;20619;-79
2023/05/15 10:44:50;;;;;;;7.87;6.60;;;19.40;50.80;;;;;;6198918;28;20239;-80
2023/05/15 10:47:54;;;;;;;6.70;5.67;;;19.40;51.50;;;;;;6205379;28;20266;-78
2023/05/15 10:51:00;;;;;;;5.70;5.47;;;19.30;51.90;;;;;;6199726;28;20242;-79
2023/05/15 10:54:03;;;;;;;6.47;5.83;;;19.20;52.50;;;;;;6204039;28;20232;-80
2023/05/15 10:57:06;;;;;;;6.00;5.70;;;19.00;52.40;;;;;;6209491;28;20376;-81
2023/05/15 11:03:44;;;;;;;6.20;5.80;;;18.90;52.20;;;;;;6325860;27;20615;-78
2023/05/15 11:07:11;;;;;;;5.50;5.30;;;18.90;52.60;;;;;;6313012;28;20225;-75
2023/05/15 11:10:36;;;;;;;6.00;5.70;;;18.90;53.30;;;;;;6310700;28;20268;-78
2023/05/15 11:14:12;;;;;;;6.00;5.43;;;19.00;54.00;;;;;;6324193;28;20236;-77
2023/05/15 11:17:16;;;;;;;4.93;4.63;;;19.30;54.00;;;;;;6315508;28;20237;-77
2023/05/15 11:20:31;;;;;;;4.70;4.50;;;19.50;53.30;;;;;;6321704;28;20248;-77
2023/05/15 11:23:41;;;;;;;4.67;4.57;;;19.70;52.50;;;;;;6304906;28;20225;-79
2023/05/15 11:26:44;;;;;;;4.17;4.03;;;19.90;52.30;;;;;;6326219;28;20226;-78
2023/05/15 11:30:11;;;;;;;3.70;3.60;;;20.00;50.70;;;;;;6318431;28;20324;-77
2023/05/15 11:33:15;;;;;;;6.93;6.50;;;20.10;48.90;;;;;;6314092;28;20381;-80
2023/05/15 11:36:24;;;;;;;3.90;3.70;;;20.20;47.40;;;;;;6306259;28;20256;-73
2023/05/15 11:39:28;;;;;;;3.60;3.30;;;20.30;47.20;;;;;;6299860;28;20245;-75
2023/05/15 11:42:32;;;;;;;3.97;3.80;;;20.50;46.60;;;;;;6289019;28;20249;-78
2023/05/15 11:45:36;;;;;;;3.87;3.67;;;20.80;46.50;;;;;;6275509;28;20233;-78
2023/05/15 11:48:41;;;;;;;3.77;3.60;;;21.00;46.80;;;;;;6264622;28;20282;-81
2023/05/15 11:51:48;;;;;;;3.50;3.40;;;21.10;47.00;;;;;;6274379;28;20238;-78
2023/05/15 11:54:51;;;;;;;5.17;3.43;;;21.00;47.50;;;;;;6265678;28;20357;-80
2023/05/15 11:57:54;;;;;;;3.53;3.43;;;21.00;47.20;;;;;;6295783;28;20327;-78
2023/05/15 12:00:58;;;;;;;3.80;3.70;;;20.90;47.20;;;;;;6288238;28;20237;-80
2023/05/15 12:04:01;;;;;;;3.63;3.53;;;20.90;47.60;;;;;;6274525;28;20376;-79
2023/05/15 12:07:07;;;;;;;3.80;3.63;;;20.90;47.50;;;;;;6281473;28;20241;-81
2023/05/15 12:10:11;;;;;;;4.40;4.20;;;21.00;47.30;;;;;;6283941;28;20822;-79
2023/05/15 12:13:17;;;;;;;3.70;3.50;;;21.30;47.50;;;;;;6275796;28;20282;-79
2023/05/15 12:16:24;;;;;;;3.87;3.77;;;21.50;46.50;;;;;;6273339;28;20910;-79
2023/05/15 12:19:28;;;;;;;3.20;3.10;;;21.70;45.60;;;;;;6261906;28;20353;-81
2023/05/15 12:22:37;;;;;;;3.70;3.60;;;21.70;45.70;;;;;;6264547;28;20238;-80
2023/05/15 12:25:40;;;;;;;3.93;3.50;;;21.80;45.70;;;;;;6268467;28;20246;-80
2023/05/15 12:28:44;;;;;;;3.80;3.53;;;21.60;46.40;;;;;;6256046;28;20264;-79
2023/05/15 12:31:52;;;;;;;3.60;3.47;;;21.60;45.90;;;;;;6266231;28;20234;-80
2023/05/15 12:34:56;;;;;;;3.97;3.73;;;21.60;45.80;;;;;;6257327;28;20481;-83
2023/05/15 12:38:03;;;;;;;3.30;3.20;;;21.70;45.50;;;;;;6269806;28;20278;-79
2023/05/15 12:41:06;;;;;;;3.37;3.27;;;22.00;44.80;;;;;;6264867;28;20241;-82
2023/05/15 12:44:16;;;;;;;3.60;3.40;;;22.10;44.40;;;;;;6262595;28;20234;-80
2023/05/15 12:47:23;;;;;;;3.30;3.00;;;22.00;44.90;;;;;;6274939;28;20234;-79
2023/05/15 12:50:29;;;;;;;3.80;3.50;;;21.90;44.80;;;;;;6249321;28;20234;-79
2023/05/15 12:53:34;;;;;;;3.90;3.60;;;22.10;44.60;;;;;;6282945;28;20225;-77
2023/05/15 12:56:37;;;;;;;3.77;3.67;;;22.30;44.90;;;;;;6298580;28;20407;-75
2023/05/15 12:59:42;;;;;;;4.53;4.17;;;22.50;44.60;;;;;;6291297;28;20289;-77
2023/05/15 13:02:45;;;;;;;4.13;3.77;;;22.90;44.60;;;;;;6300248;28;20256;-77
2023/05/15 13:05:50;;;;;;;4.27;4.07;;;23.10;44.50;;;;;;6312338;28;20236;-83
2023/05/15 13:08:55;;;;;;;3.93;3.67;;;23.40;45.00;;;;;;6313305;28;20248;-75
2023/05/15 13:11:58;;;;;;;3.70;3.43;;;23.60;43.50;;;;;;6298197;28;20238;-78
2023/05/15 13:15:01;;;;;;;4.27;3.97;;;23.60;43.20;;;;;;6311969;28;20248;-79
2023/05/15 13:18:07;;;;;;;4.60;4.20;;;23.40;43.90;;;;;;6313633;28;20293;-79
2023/05/15 13:21:10;;;;;;;5.67;4.30;;;23.00;44.00;;;;;;6319232;28;20235;-77
2023/05/15 13:24:15;;;;;;;4.23;4.13;;;23.00;44.00;;;;;;6318379;28;20217;-76
2023/05/15 13:27:18;;;;;;;4.17;3.97;;;23.00;44.70;;;;;;6315920;28;20252;-77
2023/05/15 13:30:21;;;;;;;4.27;4.07;;;23.30;44.00;;;;;;6314662;28;20256;-75
2023/05/15 13:33:24;;;;;;;4.00;3.90;;;23.60;43.20;;;;;;6315011;28;20245;-76
2023/05/15 13:36:29;;;;;;;9.47;3.63;;;23.90;42.50;;;;;;6296930;28;20214;-78
2023/05/15 13:39:34;;;;;;;8.50;3.10;;;23.60;44.00;;;;;;6295622;28;20487;-78
2023/05/15 13:42:37;;;;;;;4.30;3.10;;;23.00;45.00;;;;;;6284668;28;20218;-78
2023/05/15 13:45:42;;;;;;;4.70;2.90;;;22.40;45.90;;;;;;6296477;28;20257;-76
2023/05/15 13:48:45;;;;;;;4.60;2.60;;;21.70;46.70;;;;;;6292789;28;20217;-76
2023/05/15 13:51:48;;;;;;;2.47;2.37;;;21.10;47.60;;;;;;6294662;28;20333;-76
2023/05/15 13:54:53;;;;;;;4.43;2.50;;;20.70;48.60;;;;;;6314268;28;20218;-79
2023/05/15 13:57:57;;;;;;;2.77;2.67;;;20.20;49.80;;;;;;6318978;28;20239;-79
2023/05/15 14:01:00;;;;;;;2.87;2.60;;;19.70;50.80;;;;;;6308092;28;20225;-78
2023/05/15 14:04:03;;;;;;;4.53;3.00;;;19.40;52.00;;;;;;6314281;28;20217;-79
2023/05/15 14:07:06;;;;;;;4.63;2.97;;;19.10;52.60;;;;;;6295446;28;20234;-81
2023/05/15 14:10:12;;;;;;;3.57;3.33;;;18.70;53.20;;;;;;6285920;28;20723;-84
2023/05/15 14:13:15;;;;;;;3.47;3.20;;;18.40;53.90;;;;;;6285471;28;20271;-79
2023/05/15 14:16:18;;;;;;;3.43;3.27;;;18.10;54.50;;;;;;6288463;28;20786;-80
2023/05/15 14:19:21;;;;;;;3.07;3.07;;;18.00;55.70;;;;;;6286162;28;20236;-80
2023/05/15 14:22:25;;;;;;;4.50;4.13;;;17.80;56.30;;;;;;6277609;28;20854;-80
2023/05/15 14:25:29;;;;;;;3.50;3.40;;;17.50;57.20;;;;;;6278333;28;20238;-82
2023/05/15 14:28:32;;;;;;;3.83;3.73;;;17.50;57.30;;;;;;6276451;28;20737;-80
2023/05/15 14:31:35;;;;;;;3.67;3.57;;;17.40;58.40;;;;;;6274293;28;20882;-80
2023/05/15 14:34:39;;;;;;;3.50;3.50;;;17.30;58.20;;;;;;6273175;28;20275;-78
2023/05/15 14:37:44;;;;;;;3.60;3.50;;;17.40;58.40;;;;;;6271958;28;20234;-77
2023/05/15 14:40:55;;;;;;;4.80;4.70;;;17.20;58.70;;;;;;6562220;22;20266;-83
2023/05/15 14:43:58;;;;;;;4.50;4.20;;;17.20;59.10;;;;;;6241449;28;20616;-81
2023/05/15 14:47:08;;;;;;;4.03;3.83;;;17.20;59.30;;;;;;6230090;28;20920;-81
2023/05/15 14:50:11;;;;;;;3.83;3.73;;;17.50;58.80;;;;;;6233761;28;20237;-80
2023/05/15 14:53:14;;;;;;;3.40;3.40;;;17.80;58.40;;;;;;6236955;28;20342;-82
2023/05/15 14:56:21;;;;;;;3.40;3.30;;;18.00;57.30;;;;;;6225102;28;20923;-79
2023/05/15 14:59:24;;;;;;;3.20;3.20;;;18.20;56.40;;;;;;6233421;28;20241;-81
2023/05/15 15:02:27;;;;;;;2.90;2.90;;;18.40;56.50;;;;;;6230263;28;20246;-82
2023/05/15 15:05:31;;;;;;;2.93;2.90;;;18.50;56.30;;;;;;6228246;28;20258;-79
2023/05/15 15:08:34;;;;;;;2.77;2.77;;;18.70;55.70;;;;;;6230215;28;20277;-81
2023/05/15 15:15:14;;;;;;;2.70;2.70;;;18.90;54.90;;;;;;6235199;28;20720;-83
2023/05/15 15:18:19;;;;;;;2.90;2.90;;;19.20;55.50;;;;;;6230153;28;20234;-79
2023/05/15 15:21:22;;;;;;;3.00;2.90;;;19.70;54.30;;;;;;6225431;28;20238;-81
2023/05/15 15:24:25;;;;;;;3.23;3.03;;;19.70;54.10;;;;;;6224436;28;20280;-82
2023/05/15 15:27:32;;;;;;;2.80;2.70;;;19.70;53.90;;;;;;6225054;28;20239;-83
2023/05/15 15:30:36;;;;;;;2.97;2.90;;;19.50;54.50;;;;;;6224698;28;20239;-80
2023/05/15 15:33:39;;;;;;;3.00;2.90;;;19.60;54.70;;;;;;6222366;28;20925;-81
2023/05/15 15:36:42;;;;;;;2.97;2.97;;;19.60;54.90;;;;;;6225698;28;20249;-80
2023/05/15 15:39:45;;;;;;;3.07;3.07;;;19.80;54.90;;;;;;6222476;28;20241;-82
2023/05/15 15:42:50;;;;;;;3.47;3.37;;;19.90;54.80;;;;;;6227038;28;20735;-81
2023/05/15 15:45:54;;;;;;;3.17;3.13;;;19.80;55.00;;;;;;6228036;28;20283;-79
2023/05/15 15:48:57;;;;;;;3.50;3.30;;;19.70;54.60;;;;;;6238533;28;20230;-80
2023/05/15 15:52:00;;;;;;;5.50;3.33;;;19.70;53.60;;;;;;6240995;28;20243;-81
2023/05/15 15:55:04;;;;;;;3.10;3.00;;;19.50;54.10;;;;;;6237609;28;20246;-79
2023/05/15 15:58:08;;;;;;;3.10;3.00;;;19.30;53.90;;;;;;6231440;28;20376;-80
2023/05/15 16:01:11;;;;;;;3.23;3.13;;;19.10;54.10;;;;;;6236526;28;20235;-80
2023/05/15 16:04:15;;;;;;;3.50;3.40;;;19.00;54.10;;;;;;6232742;28;20249;-81